Latest Weather Observations for Telfer

IDW60801

Issued at 6:35 pm WST Thursday 2 October 2014 (issued every 30 minutes, with the page automatically refreshed every 10 minutes)

About weather observations | Map of weather stations | Latest weather observations for WA | Other Formats
Station Details ID: 013030 Name: TELFER AERO Lat: -21.71 Lon: 122.23 Height: 291.9 m
Data from the previous 72 hours. | See also: Recent months at Telfer
Date/Time
WST
Temp
°C
App
Temp
°C
Dew
Point
Rel
Hum
%
Delta-T
°C
Wind Press
QNH
hPa
Press
MSL
hPa
Rain
since 9 am
mm
Dir
 
Spd
km/h
Gust
km/h
Spd
kts
Gust
kts
02/06:30pm 34.7 32.5 7.7 19 15.2 NNW 9 13 5 7 1011.2 1009.2 0.0
02/06:00pm 36.0 32.9 7.1 17 16.3 NNW 13 19 7 10 1010.8 1008.8 0.0
02/05:30pm 37.2 33.5 6.3 15 17.3 NNW 15 22 8 12 1010.5 1008.5 0.0
02/05:00pm 37.9 33.6 6.8 15 17.6 NNW 19 24 10 13 1010.2 1008.2 0.0
02/04:30pm 38.8 35.1 6.5 14 18.2 NW 15 22 8 12 1009.9 1007.9 0.0
02/04:00pm 38.7 34.4 5.4 13 18.5 NNW 17 32 9 17 1009.7 1007.7 0.0
02/03:30pm 39.4 34.7 5.9 13 18.8 N 20 30 11 16 1009.4 1007.5 0.0
02/03:00pm 38.6 34.3 5.3 13 18.5 NNE 17 24 9 13 1009.4 1007.5 0.0
02/02:30pm 38.1 34.0 6.0 14 17.9 N 17 24 9 13 1009.7 1007.7 0.0
02/02:00pm 38.4 34.4 5.1 13 18.4 NNE 15 24 8 13 1009.9 1007.9 0.0
02/01:30pm 38.4 35.2 5.1 13 18.4 NNW 11 17 6 9 1010.1 1008.1 0.0
02/01:00pm 38.4 33.7 5.1 13 18.4 N 19 24 10 13 1010.4 1008.4 0.0
02/12:30pm 38.7 34.1 5.4 13 18.5 NNE 19 26 10 14 1010.7 1008.7 0.0
02/12:00pm 39.0 35.9 5.6 13 18.6 SW 11 19 6 10 1011.1 1009.1 0.0
02/11:30am 37.8 34.1 4.7 13 18.1 SW 13 22 7 12 1011.6 1009.6 0.0
02/11:00am 38.2 35.7 5.0 13 18.3 SSW 7 13 4 7 1012.0 1010.0 0.0
02/10:30am 36.8 33.4 3.9 13 17.7 SW 11 17 6 9 1012.4 1010.5 0.0
02/10:00am 36.6 33.3 4.8 14 17.3 SE 11 17 6 9 1012.6 1010.7 0.0
02/09:30am 35.0 31.7 4.5 15 16.4 ESE 11 15 6 8 1012.9 1011.0 0.0
02/09:00am 32.3 29.7 3.3 16 15.1 SSE 6 9 3 5 1013.2 1011.2 0.0
02/08:30am 30.8 28.5 2.9 17 14.3 ESE 4 7 2 4 1013.5 1011.5 0.0
02/08:00am 28.8 25.6 2.9 19 13.1 SSE 9 13 5 7 1013.5 1011.5 0.0
02/07:30am 28.5 24.7 4.1 21 12.6 SSW 13 17 7 9 1013.6 1011.6 0.0
02/07:00am 26.9 23.6 6.3 27 10.9 SSW 13 17 7 9 1013.4 1011.4 0.0
02/06:30am 24.1 22.1 6.4 32 9.2 SSE 6 9 3 5 1012.9 1011.0 0.0
02/06:00am 21.9 20.5 5.3 34 8.4 S 2 7 1 4 1012.4 1010.5 0.0
02/05:30am 22.1 19.4 5.5 34 8.4 NNW 9 13 5 7 1012.3 1010.4 0.0
02/05:00am 21.6 19.4 5.5 35 8.1 E 6 11 3 6 1012.0 1010.0 0.0
02/04:30am 22.3 18.0 5.3 33 8.6 NNE 17 32 9 17 1011.9 1009.9 0.0
02/04:00am 23.7 22.8 6.0 32 9.2 CALM 0 0 0 0 1011.3 1009.3 0.0
02/03:30am 24.2 22.8 5.5 30 9.6 S 2 7 1 4 1011.2 1009.2 0.0
02/03:00am 25.2 24.3 5.9 29 10.1 CALM 0 0 0 0 1011.2 1009.2 0.0
02/02:30am 24.8 22.5 5.6 29 9.9 S 7 9 4 5 1011.6 1009.6 0.0
02/02:00am 24.8 23.0 5.6 29 9.9 SSE 4 7 2 4 1011.8 1009.8 0.0
02/01:30am 24.3 21.6 5.6 30 9.6 SSE 9 13 5 7 1012.0 1010.0 0.0
02/01:00am 25.3 22.2 5.5 28 10.2 SE 11 15 6 8 1012.1 1010.1 0.0
02/12:30am 26.5 23.4 5.5 26 10.9 WSW 11 20 6 11 1012.2 1010.3 0.0
02/12:00am 26.3 23.3 5.8 27 10.7 W 11 15 6 8 1012.1 1010.1 0.0
 
Date/Time
WST
Temp
°C
App
Temp
°C
Dew
Point
Rel
Hum
%
Delta-T
°C
Wind Press
QNH
hPa
Press
MSL
hPa
Rain
since 9 am
mm
Dir
 
Spd
km/h
Gust
km/h
Spd
kts
Gust
kts
01/11:30pm 26.2 23.7 4.6 25 11.1 NNW 7 11 4 6 1012.3 1010.4 0.0
01/11:00pm 27.7 24.8 4.7 23 11.9 NW 9 15 5 8 1012.5 1010.6 0.0
01/10:30pm 28.3 25.3 3.9 21 12.5 NNW 9 13 5 7 1012.7 1010.8 0.0
01/10:00pm 27.9 26.3 2.2 19 12.8 CALM 0 6 0 3 1012.4 1010.5 0.0
01/09:30pm 28.1 26.0 1.6 18 13.0 N 2 6 1 3 1012.5 1010.6 0.0
01/09:00pm 29.8 26.9 1.3 16 14.1 NNE 6 7 3 4 1012.5 1010.6 0.0
01/08:30pm 30.3 28.1 0.8 15 14.5 NE 2 6 1 3 1012.5 1010.6 0.0
01/08:00pm 31.1 28.8 0.5 14 15.1 NE 2 6 1 3 1012.4 1010.5 0.0
01/07:30pm 31.1 27.9 0.5 14 15.1 ENE 7 9 4 5 1012.1 1010.1 0.0
01/07:00pm 32.1 28.8 0.2 13 15.7 ENE 7 9 4 5 1011.7 1009.7 0.0
01/06:30pm 33.8 30.2 0.5 12 16.7 NE 9 9 5 5 1011.4 1009.4 0.0
01/06:00pm 35.3 31.5 -0.9 10 17.9 NE 9 11 5 6 1010.9 1008.9 0.0
01/05:30pm 37.2 32.6 -0.9 9 19.0 NE 13 20 7 11 1010.5 1008.5 0.0
01/05:00pm 38.3 33.1 -0.1 9 19.6 NE 17 24 9 13 1010.2 1008.2 0.0
01/04:30pm 38.6 33.8 0.1 9 19.7 NE 15 22 8 12 1010.0 1008.0 0.0
01/04:00pm 39.1 34.0 0.5 9 20.0 NE 17 30 9 16 1010.0 1008.0 0.0
01/03:30pm 39.5 32.8 -0.8 8 20.5 NE 24 39 13 21 1009.9 1007.9 0.0
01/03:00pm 39.4 32.6 0.7 9 20.1 NNE 26 33 14 18 1009.9 1007.9 0.0
01/02:30pm 39.4 33.9 0.7 9 20.1 ENE 19 28 10 15 1010.2 1008.2 0.0
01/02:00pm 39.9 34.3 1.1 9 20.3 ENE 20 35 11 19 1010.5 1008.5 0.0
01/01:30pm 38.9 33.2 0.3 9 19.9 E 20 32 11 17 1011.1 1009.1 0.0
01/01:05pm 39.0 31.8 0.4 9 19.9 E 28 46 15 25 1011.5 1009.5 0.0
01/01:00pm 39.2 32.0 0.6 9 20.0 E 28 43 15 23 1011.6 1009.6 0.0
01/12:30pm 37.9 30.9 -0.4 9 19.4 ESE 26 43 14 23 1012.2 1010.3 0.0
01/12:07pm 38.4 31.3 1.4 10 19.3 E 28 56 15 30 1012.6 1010.7 0.0
01/12:00pm 38.3 30.8 1.3 10 19.3 ESE 30 46 16 25 1012.7 1010.8 0.0
01/11:53am 38.3 31.2 1.3 10 19.3 ESE 28 46 15 25 1012.9 1011.0 0.0
01/11:30am 36.9 29.3 0.3 10 18.6 E 30 43 16 23 1013.3 1011.3 0.0
01/11:00am 36.5 28.6 1.3 11 18.1 E 32 46 17 25 1014.1 1012.1 0.0
01/10:30am 35.7 27.2 0.7 11 17.8 ESE 35 48 19 26 1014.5 1012.5 0.0
01/10:00am 35.2 26.8 1.5 12 17.3 ESE 35 46 19 25 1014.9 1012.9 0.0
01/09:30am 34.0 26.0 0.6 12 16.8 ESE 32 46 17 25 1015.3 1013.4 0.0
01/09:00am 31.6 23.5 -0.1 13 15.5 ESE 32 41 17 22 1015.6 1013.7 0.0
01/08:30am 30.2 22.1 0.7 15 14.5 ESE 33 44 18 24 1015.8 1013.9 0.0
01/08:00am 28.3 19.6 -0.8 15 13.7 ESE 35 46 19 25 1015.7 1013.8 0.0
01/07:30am 27.3 19.6 0.1 17 12.9 SE 30 39 16 21 1015.7 1014.3 0.0
01/07:00am 24.7 18.6 0.3 20 11.4 SE 22 30 12 16 1015.3 1013.9 0.0
01/06:30am 22.2 16.4 0.1 23 10.1 SE 20 28 11 15 1015.1 1013.6 0.0
01/06:00am 22.2 15.7 0.1 23 10.1 SSE 24 30 13 16 1014.6 1013.1 0.0
01/05:30am 21.4 15.7 0.6 25 9.6 SE 20 24 11 13 1014.5 1013.0 0.0
01/05:00am 22.1 16.0 0.6 24 9.9 SE 22 30 12 16 1014.1 1012.6 0.0
01/04:30am 23.0 16.3 1.4 24 10.2 SE 26 32 14 17 1013.6 1012.1 0.0
01/04:00am 23.6 16.9 1.3 23 10.6 SSE 26 32 14 17 1013.3 1011.8 0.0
01/03:30am 24.3 18.1 1.9 23 10.8 SSE 24 30 13 16 1013.0 1011.6 0.0
01/03:00am 24.1 17.9 2.3 24 10.6 SE 24 30 13 16 1012.9 1011.5 0.0
01/02:30am 25.1 19.0 2.5 23 11.1 SSE 24 30 13 16 1012.7 1011.3 0.0
01/02:00am 25.8 19.7 2.5 22 11.5 SSE 24 32 13 17 1012.6 1011.2 0.0
01/01:30am 26.6 21.3 3.2 22 11.7 SSE 20 26 11 14 1012.5 1011.1 0.0
01/01:00am 27.0 21.7 2.8 21 12.1 SSE 20 24 11 13 1012.5 1011.1 0.0
01/12:30am 27.3 22.2 3.1 21 12.1 SSE 19 22 10 12 1012.8 1011.4 0.0
01/12:00am 27.5 22.8 3.2 21 12.2 SSE 17 20 9 11 1013.0 1011.6 0.0
 
Date/Time
WST
Temp
°C
App
Temp
°C
Dew
Point
Rel
Hum
%
Delta-T
°C
Wind Press
QNH
hPa
Press
MSL
hPa
Rain
since 9 am
mm
Dir
 
Spd
km/h
Gust
km/h
Spd
kts
Gust
kts
30/11:30pm 28.9 23.7 3.7 20 12.9 SSE 20 24 11 13 1013.2 1011.7 0.0
30/11:00pm 27.3 23.1 3.7 22 12.0 SSE 15 17 8 9 1013.6 1012.1 0.0
30/10:30pm 26.5 22.7 3.7 23 11.5 SSE 13 13 7 7 1013.7 1012.2 0.0
30/10:00pm 25.8 22.2 3.1 23 11.3 SE 11 13 6 7 1013.9 1012.4 0.0
30/09:30pm 29.9 25.6 3.0 18 13.7 SSE 15 19 8 10 1014.0 1012.5 0.0
30/09:00pm 30.7 26.1 3.7 18 14.0 SSE 17 20 9 11 1014.0 1012.5 0.0
30/08:30pm 30.7 26.5 3.7 18 14.0 SSE 15 17 8 9 1014.0 1012.5 0.0
30/08:00pm 31.6 27.6 2.7 16 14.8 SSE 13 17 7 9 1013.8 1012.3 0.0
30/07:30pm 31.8 27.7 2.0 15 15.1 SSE 13 17 7 9 1013.6 1012.1 0.0
30/07:00pm 32.7 28.5 1.7 14 15.7 SSE 13 15 7 8 1013.3 1011.8 0.0
30/06:30pm 33.0 28.9 2.0 14 15.8 SSE 13 17 7 9 1012.9 1011.5 0.0
30/06:00pm 33.9 29.7 1.6 13 16.5 SSE 13 15 7 8 1012.5 1011.1 0.0
30/05:30pm 35.4 30.5 1.7 12 17.4 SE 17 22 9 12 1012.2 1010.8 0.0
30/05:00pm 36.1 30.9 2.2 12 17.7 ESE 19 32 10 17 1011.9 1010.4 0.0
30/04:30pm 36.7 32.1 1.5 11 18.2 SE 15 19 8 10 1011.6 1010.1 0.0
30/04:00pm 36.9 31.9 1.6 11 18.3 SE 17 30 9 16 1011.4 1009.9 0.0
30/03:30pm 37.4 31.5 2.0 11 18.5 ESE 22 32 12 17 1011.3 1009.8 0.0
30/03:00pm 37.4 31.9 2.0 11 18.6 S 20 26 11 14 1011.3 1009.8 0.0
30/02:30pm 37.4 34.0 2.0 11 18.5 SE 9 19 5 10 1011.4 1009.9 0.0
30/02:20pm 37.6 30.6 2.1 11 18.6 ESE 28 41 15 22 1011.4 1009.9 0.0
30/02:00pm 37.5 33.4 2.1 11 18.6 ENE 13 20 7 11 1011.6 1010.1 0.0
30/01:30pm 37.6 32.9 3.4 12 18.3 ENE 17 30 9 16 1012.0 1010.5 0.0
30/01:00pm 37.3 32.0 3.1 12 18.2 ESE 20 32 11 17 1012.3 1010.9 0.0
30/12:30pm 36.9 31.6 2.8 12 18.0 E 20 28 11 15 1012.8 1011.4 0.0
30/12:00pm 36.2 30.8 2.3 12 17.7 E 20 32 11 17 1013.4 1011.9 0.0
30/11:30am 36.5 30.9 3.7 13 17.5 ESE 22 28 12 15 1013.9 1012.4 0.0
30/11:00am 35.9 30.6 3.2 13 17.3 E 20 26 11 14 1014.5 1013.0 0.0
30/10:30am 33.7 27.6 2.5 14 16.1 ESE 24 33 13 18 1015.0 1013.5 0.0
30/10:00am 33.1 26.3 3.0 15 15.6 ESE 28 41 15 22 1015.2 1013.7 0.0
30/09:30am 31.7 24.1 2.8 16 14.8 ESE 32 43 17 23 1015.4 1014.0 0.0
30/09:00am 30.8 24.5 3.8 18 14.0 ESE 26 35 14 19 1015.5 1014.1 0.0
30/08:30am 29.5 23.3 4.2 20 13.1 ESE 26 37 14 20 1015.6 1014.2 0.0
30/08:00am 28.0 21.7 3.7 21 12.4 SSE 26 35 14 19 1015.4 1014.0 0.0
30/07:30am 27.1 21.3 4.2 23 11.7 SSE 24 28 13 15 1015.1 1013.6 0.0
30/07:00am 26.2 21.1 4.1 24 11.2 S 20 24 11 13 1015.0 1013.5 0.0
30/06:30am 25.3 20.7 3.9 25 10.8 S 17 24 9 13 1014.5 1013.0 0.0
30/06:00am 21.4 18.0 4.0 32 8.5 ESE 11 13 6 7 1013.9 1012.4 0.0
30/05:30am 21.5 18.8 3.7 31 8.7 E 7 9 4 5 1013.5 1012.0 0.0
30/05:00am 23.1 20.0 3.6 28 9.6 SSE 9 11 5 6 1013.2 1011.7 0.0
30/04:30am 24.8 20.3 4.0 26 10.4 SSE 17 20 9 11 1012.9 1011.5 0.0
30/04:00am 25.4 21.7 4.5 26 10.6 SSE 13 19 7 10 1012.6 1011.2 0.0
30/03:30am 24.4 22.0 4.2 27 10.1 ESE 6 7 3 4 1012.3 1010.9 0.0
30/03:00am 25.2 22.7 3.8 25 10.7 ESE 6 6 3 3 1012.3 1010.9 0.0
30/02:30am 26.5 24.7 3.7 23 11.5 E 2 7 1 4 1012.3 1010.9 0.0
30/02:00am 27.1 24.0 3.6 22 11.9 S 9 13 5 7 1012.3 1010.9 0.0
30/01:30am 26.9 23.5 4.0 23 11.6 WSW 11 13 6 7 1012.4 1011.0 0.0
30/01:00am 29.1 24.2 3.9 20 13.0 SW 19 24 10 13 1012.4 1011.0 0.0
30/12:30am 27.6 25.0 4.0 22 12.1 S 7 9 4 5 1012.5 1011.1 0.0
30/12:00am 27.2 22.7 4.3 23 11.7 SSE 17 22 9 12 1012.8 1011.4 0.0
 
Date/Time
WST
Temp
°C
App
Temp
°C
Dew
Point
Rel
Hum
%
Delta-T
°C
Wind Press
QNH
hPa
Press
MSL
hPa
Rain
since 9 am
mm
Dir
 
Spd
km/h
Gust
km/h
Spd
kts
Gust
kts
29/11:30pm 30.5 26.6 3.5 18 13.9 WSW 13 22 7 12 1012.8 1011.4 0.0
29/11:00pm 29.8 26.0 3.7 19 13.4 WSW 13 24 7 13 1013.2 1011.7 0.0
29/10:30pm 30.0 26.6 3.9 19 13.5 SW 11 15 6 8 1013.4 1011.9 0.0
29/10:00pm 29.8 26.7 3.7 19 13.4 W 9 11 5 6 1013.6 1012.1 0.0
29/09:30pm 30.6 27.1 3.6 18 14.0 SW 11 17 6 9 1013.8 1012.3 0.0
29/09:00pm 30.7 27.6 3.7 18 14.0 WSW 9 13 5 7 1013.8 1012.3 0.0
29/08:30pm 30.7 27.6 3.7 18 14.0 SW 9 13 5 7 1013.7 1012.2 0.0
29/08:00pm 31.1 28.3 3.2 17 14.4 WSW 7 11 4 6 1013.5 1012.0 0.0
29/07:30pm 31.7 28.8 2.8 16 14.8 WSW 7 9 4 5 1013.0 1011.6 0.0
29/07:00pm 32.5 28.8 2.5 15 15.4 SW 11 15 6 8 1012.7 1011.3 0.0

Other Formats:

Comma delimited format used in spreadsheet applications
http://www.bom.gov.au/fwo/IDW60801/IDW60801.94319.axf

JavaScript Object Notation format (JSON) in row-major order
http://www.bom.gov.au/fwo/IDW60801/IDW60801.94319.json